createdAt,value
2017-06-28T00:00:01.061Z,1006.46
2017-06-28T00:00:26.620Z,1006.46
2017-06-28T00:00:52.233Z,1006.46
2017-06-28T00:01:17.795Z,1006.45
2017-06-28T00:01:43.370Z,1006.46
2017-06-28T00:02:08.955Z,1006.44
2017-06-28T00:02:34.533Z,1006.45
2017-06-28T00:03:00.111Z,1006.46
2017-06-28T00:03:25.669Z,1006.41
2017-06-28T00:03:51.302Z,1006.43
2017-06-28T00:04:16.869Z,1006.44
2017-06-28T00:04:42.410Z,1006.42
2017-06-28T00:05:07.955Z,1006.41
2017-06-28T00:05:33.587Z,1006.39
2017-06-28T00:06:32.508Z,1006.36
2017-06-28T00:06:58.147Z,1006.38
2017-06-28T00:07:23.725Z,1006.37
2017-06-28T00:07:49.289Z,1006.34
2017-06-28T00:08:14.898Z,1006.31
2017-06-28T00:08:40.508Z,1006.33
2017-06-28T00:09:06.051Z,1006.29
2017-06-28T00:09:31.617Z,1006.31
2017-06-28T00:09:57.157Z,1006.28
2017-06-28T00:10:22.732Z,1006.22
2017-06-28T00:10:48.342Z,1006.26
2017-06-28T00:11:13.927Z,1006.22
2017-06-28T00:11:39.497Z,1006.21
2017-06-28T00:12:05.129Z,1006.2
2017-06-28T00:12:30.727Z,1006.21
2017-06-28T00:12:56.307Z,1006.2
2017-06-28T00:13:21.879Z,1006.17
2017-06-28T00:13:47.451Z,1006.17
2017-06-28T00:14:13.020Z,1006.18
2017-06-28T00:14:38.601Z,1006.14
2017-06-28T00:15:04.158Z,1006.19
2017-06-28T00:15:29.739Z,1006.16
2017-06-28T00:15:55.305Z,1006.13
2017-06-28T00:16:20.908Z,1006.15
2017-06-28T00:16:46.464Z,1006.13
2017-06-28T00:17:12.036Z,1006.11
2017-06-28T00:17:37.586Z,1006.14
2017-06-28T00:18:03.129Z,1006.13
2017-06-28T00:18:28.721Z,1006.1
2017-06-28T00:18:54.423Z,1006.06
2017-06-28T00:19:19.998Z,1006.08
2017-06-28T00:19:45.540Z,1006.07
2017-06-28T00:20:11.106Z,1006.07
2017-06-28T00:20:36.733Z,1006.08
2017-06-28T00:21:02.311Z,1006.1
2017-06-28T00:21:27.904Z,1006.09
2017-06-28T00:21:53.479Z,1006.07
2017-06-28T00:22:19.033Z,1006.1
2017-06-28T00:22:44.581Z,1006.1
2017-06-28T00:23:10.123Z,1006.09
2017-06-28T00:23:35.712Z,1006.08
2017-06-28T00:24:01.298Z,1006.06
2017-06-28T00:24:26.870Z,1006.08
2017-06-28T00:24:52.428Z,1006.05
2017-06-28T00:25:18.000Z,1006.08
2017-06-28T00:25:43.628Z,1006.1
2017-06-28T00:26:09.186Z,1006.09
2017-06-28T00:26:34.793Z,1006.12
2017-06-28T00:27:00.347Z,1006.08
2017-06-28T00:27:25.948Z,1006.12
2017-06-28T00:27:51.508Z,1006.12
2017-06-28T00:28:17.047Z,1006.11
2017-06-28T00:28:42.613Z,1006.07
2017-06-28T00:29:08.154Z,1006.09
2017-06-28T00:29:33.707Z,1006.06
2017-06-28T00:29:59.265Z,1006.06
2017-06-28T00:30:24.816Z,1006.05
2017-06-28T00:30:50.401Z,1006.03
2017-06-28T00:31:15.994Z,1006.06
2017-06-28T00:31:41.685Z,1006.06
2017-06-28T00:32:07.334Z,1006.07
2017-06-28T00:32:32.887Z,1006.05
2017-06-28T00:32:58.447Z,1006.06
2017-06-28T00:33:23.995Z,1006.01
2017-06-28T00:33:49.563Z,1006.03
2017-06-28T00:34:15.141Z,1006
2017-06-28T00:34:40.784Z,1006.03
2017-06-28T00:35:06.345Z,1006.01
2017-06-28T00:35:31.912Z,1006
2017-06-28T00:35:57.478Z,1006
2017-06-28T00:36:23.053Z,1006.01
2017-06-28T00:36:48.622Z,1005.99
2017-06-28T00:37:14.191Z,1006.01
2017-06-28T00:37:39.759Z,1006
2017-06-28T00:38:05.333Z,1005.96
2017-06-28T00:38:30.900Z,1006
2017-06-28T00:38:56.466Z,1005.94
2017-06-28T00:39:22.047Z,1005.96
2017-06-28T00:39:47.601Z,1005.95
2017-06-28T00:40:13.157Z,1005.95
2017-06-28T00:40:38.720Z,1005.94
2017-06-28T00:41:04.425Z,1005.95
2017-06-28T00:41:30.021Z,1005.93
2017-06-28T00:41:55.579Z,1005.94
2017-06-28T00:42:21.160Z,1005.91
2017-06-28T00:42:46.712Z,1005.91
2017-06-28T00:43:12.250Z,1005.9
2017-06-28T00:43:37.845Z,1005.88
2017-06-28T00:44:03.419Z,1005.9
2017-06-28T00:44:28.995Z,1005.89
2017-06-28T00:44:54.573Z,1005.83
2017-06-28T00:45:20.155Z,1005.81
2017-06-28T00:45:45.723Z,1005.86
2017-06-28T00:46:11.279Z,1005.88
2017-06-28T00:46:36.837Z,1005.83
2017-06-28T00:47:02.389Z,1005.85
2017-06-28T00:47:27.961Z,1005.85
2017-06-28T00:47:53.538Z,1005.81
2017-06-28T00:48:19.131Z,1005.79
2017-06-28T00:48:44.687Z,1005.8
2017-06-28T00:49:10.247Z,1005.82
2017-06-28T00:49:35.846Z,1005.84
2017-06-28T00:50:01.504Z,1005.84
2017-06-28T00:50:27.094Z,1005.83
2017-06-28T00:50:52.653Z,1005.79
2017-06-28T00:51:18.221Z,1005.81
2017-06-28T00:51:43.779Z,1005.79
2017-06-28T00:52:09.325Z,1005.79
2017-06-28T00:52:34.882Z,1005.78
2017-06-28T00:53:00.452Z,1005.78
2017-06-28T00:53:26.011Z,1005.79
2017-06-28T00:53:51.641Z,1005.81
2017-06-28T00:54:17.209Z,1005.83
2017-06-28T00:54:42.790Z,1005.81
2017-06-28T00:55:08.365Z,1005.81
2017-06-28T00:55:33.943Z,1005.82
2017-06-28T00:55:59.481Z,1005.78
2017-06-28T00:56:25.046Z,1005.77
2017-06-28T00:56:50.625Z,1005.75
2017-06-28T00:57:16.172Z,1005.78
2017-06-28T00:57:41.820Z,1005.78
2017-06-28T00:58:07.377Z,1005.77
2017-06-28T00:58:32.933Z,1005.78
2017-06-28T00:58:58.520Z,1005.76
2017-06-28T00:59:24.283Z,1005.75
2017-06-28T00:59:49.853Z,1005.72
2017-06-28T01:00:15.412Z,1005.67
2017-06-28T01:00:40.968Z,1005.71
2017-06-28T01:01:06.535Z,1005.7
2017-06-28T01:01:32.119Z,1005.69
2017-06-28T01:01:57.686Z,1005.69
2017-06-28T01:02:23.248Z,1005.7
2017-06-28T01:02:48.826Z,1005.7
2017-06-28T01:03:14.381Z,1005.68
2017-06-28T01:03:39.945Z,1005.67
2017-06-28T01:04:05.537Z,1005.67
2017-06-28T01:04:31.075Z,1005.69
2017-06-28T01:04:56.637Z,1005.67
2017-06-28T01:05:22.207Z,1005.67
2017-06-28T01:05:47.766Z,1005.67
2017-06-28T01:06:13.340Z,1005.68
2017-06-28T01:06:38.891Z,1005.63
2017-06-28T01:07:04.436Z,1005.65
2017-06-28T01:07:29.995Z,1005.64
2017-06-28T01:07:55.588Z,1005.66
2017-06-28T01:08:21.246Z,1005.64
2017-06-28T01:08:46.908Z,1005.63
2017-06-28T01:09:12.492Z,1005.64
2017-06-28T01:09:38.067Z,1005.66
2017-06-28T01:10:03.631Z,1005.64
2017-06-28T01:10:29.196Z,1005.6
2017-06-28T01:10:54.799Z,1005.61
2017-06-28T01:11:20.357Z,1005.65
2017-06-28T01:11:45.927Z,1005.6
2017-06-28T01:12:11.511Z,1005.6
2017-06-28T01:12:37.076Z,1005.59
2017-06-28T01:13:02.621Z,1005.56
2017-06-28T01:13:28.229Z,1005.59
2017-06-28T01:13:53.786Z,1005.54
2017-06-28T01:14:19.362Z,1005.57
2017-06-28T01:14:44.927Z,1005.55
2017-06-28T01:15:10.492Z,1005.54
2017-06-28T01:15:36.057Z,1005.54
2017-06-28T01:16:01.637Z,1005.53
2017-06-28T01:16:27.391Z,1005.53
2017-06-28T01:16:52.949Z,1005.54
2017-06-28T01:17:18.588Z,1005.51
2017-06-28T01:17:44.139Z,1005.48
2017-06-28T01:18:09.711Z,1005.49
2017-06-28T01:18:35.257Z,1005.51
2017-06-28T01:19:00.816Z,1005.48
2017-06-28T01:19:26.403Z,1005.48
2017-06-28T01:19:51.993Z,1005.48
2017-06-28T01:20:17.557Z,1005.48
2017-06-28T01:20:43.154Z,1005.48
2017-06-28T01:21:08.717Z,1005.47
2017-06-28T01:21:34.294Z,1005.47
2017-06-28T01:21:59.838Z,1005.5
2017-06-28T01:22:25.399Z,1005.48
2017-06-28T01:22:50.990Z,1005.48
2017-06-28T01:23:16.621Z,1005.44
2017-06-28T01:23:42.223Z,1005.41
2017-06-28T01:24:07.790Z,1005.43
2017-06-28T01:24:33.386Z,1005.4
2017-06-28T01:24:58.931Z,1005.39
2017-06-28T01:25:24.520Z,1005.38
2017-06-28T01:25:50.061Z,1005.38
2017-06-28T01:26:15.661Z,1005.4
2017-06-28T01:26:41.216Z,1005.38
2017-06-28T01:27:06.782Z,1005.35
2017-06-28T01:27:32.356Z,1005.37
2017-06-28T01:27:57.920Z,1005.38
2017-06-28T01:28:23.554Z,1005.36
2017-06-28T01:28:49.129Z,1005.34
2017-06-28T01:29:14.680Z,1005.37
2017-06-28T01:29:40.260Z,1005.34
2017-06-28T01:30:05.811Z,1005.33
2017-06-28T01:30:31.387Z,1005.34
2017-06-28T01:30:56.988Z,1005.33
2017-06-28T01:31:22.550Z,1005.29
2017-06-28T01:31:48.127Z,1005.32
2017-06-28T01:32:13.747Z,1005.31
2017-06-28T01:32:39.308Z,1005.29
2017-06-28T01:33:04.875Z,1005.31
2017-06-28T01:33:30.430Z,1005.29
2017-06-28T01:33:56.191Z,1005.27
2017-06-28T01:34:21.768Z,1005.3
2017-06-28T01:34:47.355Z,1005.25
2017-06-28T01:35:12.953Z,1005.25
2017-06-28T01:35:38.501Z,1005.27
2017-06-28T01:36:04.085Z,1005.26
2017-06-28T01:36:29.649Z,1005.25
2017-06-28T01:36:55.251Z,1005.24
2017-06-28T01:37:20.820Z,1005.22
2017-06-28T01:37:46.490Z,1005.2
2017-06-28T01:38:12.053Z,1005.22
2017-06-28T01:38:37.620Z,1005.24
2017-06-28T01:39:03.270Z,1005.24
2017-06-28T01:39:28.856Z,1005.24
2017-06-28T01:39:54.400Z,1005.23
2017-06-28T01:40:20.003Z,1005.18
2017-06-28T01:40:45.652Z,1005.18
2017-06-28T01:41:11.228Z,1005.19
2017-06-28T01:41:36.790Z,1005.21
2017-06-28T01:42:02.381Z,1005.16
2017-06-28T01:42:27.972Z,1005.17
2017-06-28T01:42:53.593Z,1005.15
2017-06-28T01:43:19.153Z,1005.15
2017-06-28T01:44:23.138Z,1005.1
2017-06-28T01:44:48.748Z,1005.15
2017-06-28T01:45:14.308Z,1005.12
2017-06-28T01:45:39.999Z,1005.13
2017-06-28T01:46:05.590Z,1005.13
2017-06-28T01:46:31.229Z,1005.13
2017-06-28T01:46:56.856Z,1005.1
2017-06-28T01:47:22.415Z,1005.11
2017-06-28T01:47:48.008Z,1005.1
2017-06-28T01:48:13.564Z,1005.06
2017-06-28T01:48:39.124Z,1005.05
2017-06-28T01:49:04.682Z,1005.04
2017-06-28T01:49:30.242Z,1005.03
2017-06-28T01:49:55.805Z,1005.04
2017-06-28T01:50:21.393Z,1005.03
2017-06-28T01:50:46.984Z,1005
2017-06-28T01:51:12.574Z,1005
2017-06-28T01:51:38.144Z,1004.99
2017-06-28T01:52:03.727Z,1005
2017-06-28T01:52:29.285Z,1004.95
2017-06-28T01:52:54.839Z,1004.95
2017-06-28T01:53:20.410Z,1004.93
2017-06-28T01:53:45.982Z,1004.92
2017-06-28T01:54:11.532Z,1004.92
2017-06-28T01:54:37.177Z,1004.9
2017-06-28T01:55:02.738Z,1004.89
2017-06-28T01:55:28.360Z,1004.88
2017-06-28T01:55:53.959Z,1004.89
2017-06-28T01:56:19.555Z,1004.85
2017-06-28T01:56:45.131Z,1004.89
2017-06-28T01:57:10.681Z,1004.89
2017-06-28T01:57:36.223Z,1004.86
2017-06-28T01:58:01.779Z,1004.86
2017-06-28T01:58:27.424Z,1004.84
2017-06-28T01:58:53.001Z,1004.83
2017-06-28T01:59:18.559Z,1004.83
2017-06-28T01:59:44.127Z,1004.82
2017-06-28T02:00:09.690Z,1004.85
2017-06-28T02:00:35.280Z,1004.8
2017-06-28T02:01:00.836Z,1004.8
2017-06-28T02:01:26.399Z,1004.86
2017-06-28T02:01:51.952Z,1004.8
2017-06-28T02:02:17.513Z,1004.82
2017-06-28T02:02:43.084Z,1004.88
2017-06-28T02:03:08.652Z,1004.86
2017-06-28T02:03:34.324Z,1004.87
2017-06-28T02:03:59.882Z,1004.88
2017-06-28T02:04:25.448Z,1004.88
2017-06-28T02:04:50.998Z,1004.9
2017-06-28T02:05:16.593Z,1004.88
2017-06-28T02:05:42.147Z,1004.88
2017-06-28T02:06:07.779Z,1004.89
2017-06-28T02:06:33.430Z,1004.91
2017-06-28T02:06:58.986Z,1004.89
2017-06-28T02:07:24.551Z,1004.84
2017-06-28T02:07:50.112Z,1004.89
2017-06-28T02:08:15.676Z,1004.85
2017-06-28T02:08:41.232Z,1004.87
2017-06-28T02:09:06.918Z,1004.85
2017-06-28T02:09:32.478Z,1004.79
2017-06-28T02:09:58.039Z,1004.79
2017-06-28T02:10:23.608Z,1004.79
2017-06-28T02:10:49.152Z,1004.85
2017-06-28T02:11:14.716Z,1004.85
2017-06-28T02:11:40.262Z,1004.76
2017-06-28T02:12:05.810Z,1004.8
2017-06-28T02:12:31.391Z,1004.8
2017-06-28T02:12:56.990Z,1004.86
2017-06-28T02:13:22.534Z,1004.81
2017-06-28T02:13:48.174Z,1004.8
2017-06-28T02:14:13.811Z,1004.74
2017-06-28T02:14:39.378Z,1004.78
2017-06-28T02:15:04.972Z,1004.79
2017-06-28T02:15:30.528Z,1004.74
2017-06-28T02:15:56.104Z,1004.78
2017-06-28T02:16:21.676Z,1004.73
2017-06-28T02:16:47.226Z,1004.77
2017-06-28T02:17:12.780Z,1004.72
2017-06-28T02:17:38.376Z,1004.75
2017-06-28T02:18:03.988Z,1004.71
2017-06-28T02:18:29.545Z,1004.71
2017-06-28T02:18:55.097Z,1004.7
2017-06-28T02:19:20.657Z,1004.69
2017-06-28T02:19:46.216Z,1004.71
2017-06-28T02:20:11.789Z,1004.71
2017-06-28T02:20:37.354Z,1004.71
2017-06-28T02:21:02.997Z,1004.69
2017-06-28T02:21:28.570Z,1004.68
2017-06-28T02:21:54.179Z,1004.67
2017-06-28T02:22:19.780Z,1004.65
2017-06-28T02:22:45.342Z,1004.67
2017-06-28T02:23:10.923Z,1004.62
2017-06-28T02:23:36.498Z,1004.59
2017-06-28T02:24:02.060Z,1004.63
2017-06-28T02:24:27.647Z,1004.62
2017-06-28T02:24:53.203Z,1004.62
2017-06-28T02:25:18.755Z,1004.59
2017-06-28T02:25:44.333Z,1004.59
2017-06-28T02:26:09.903Z,1004.6
2017-06-28T02:26:35.470Z,1004.53
2017-06-28T02:27:01.009Z,1004.58
2017-06-28T02:27:26.628Z,1004.55
2017-06-28T02:27:52.192Z,1004.52
2017-06-28T02:28:17.780Z,1004.52
2017-06-28T02:28:43.413Z,1004.51
2017-06-28T02:29:08.969Z,1004.51
2017-06-28T02:29:34.519Z,1004.48
2017-06-28T02:30:00.095Z,1004.52
2017-06-28T02:30:25.649Z,1004.46
2017-06-28T02:30:51.274Z,1004.51
2017-06-28T02:31:16.956Z,1004.48
2017-06-28T02:31:42.539Z,1004.5
2017-06-28T02:32:08.091Z,1004.43
2017-06-28T02:32:33.643Z,1004.44
2017-06-28T02:32:59.190Z,1004.45
2017-06-28T02:33:24.769Z,1004.46
2017-06-28T02:33:50.308Z,1004.48
2017-06-28T02:34:15.880Z,1004.45
2017-06-28T02:34:41.460Z,1004.46
2017-06-28T02:35:07.006Z,1004.47
2017-06-28T02:35:32.653Z,1004.47
2017-06-28T02:35:58.191Z,1004.48
2017-06-28T02:36:23.747Z,1004.43
2017-06-28T02:36:49.304Z,1004.43
2017-06-28T02:37:14.865Z,1004.45
2017-06-28T02:37:40.417Z,1004.43
2017-06-28T02:38:05.987Z,1004.45
2017-06-28T02:38:31.561Z,1004.42
2017-06-28T02:38:57.118Z,1004.42
2017-06-28T02:39:22.697Z,1004.41
2017-06-28T02:39:48.295Z,1004.39
2017-06-28T02:40:13.861Z,1004.42
2017-06-28T02:40:39.411Z,1004.41
2017-06-28T02:41:04.959Z,1004.41
2017-06-28T02:41:30.540Z,1004.4
2017-06-28T02:41:56.082Z,1004.41
2017-06-28T02:42:21.667Z,1004.39
2017-06-28T02:42:47.256Z,1004.4
2017-06-28T02:43:12.809Z,1004.37
2017-06-28T02:43:38.366Z,1004.38
2017-06-28T02:44:03.928Z,1004.36
2017-06-28T02:44:29.487Z,1004.38
2017-06-28T02:44:55.055Z,1004.42
2017-06-28T02:45:20.603Z,1004.39
2017-06-28T02:45:46.180Z,1004.41
2017-06-28T02:46:11.740Z,1004.37
2017-06-28T02:46:37.349Z,1004.34
2017-06-28T02:47:02.909Z,1004.37
2017-06-28T02:47:28.482Z,1004.32
2017-06-28T02:47:54.038Z,1004.36
2017-06-28T02:48:19.600Z,1004.3
2017-06-28T02:48:45.157Z,1004.34
2017-06-28T02:49:10.746Z,1004.37
2017-06-28T02:49:36.295Z,1004.32
2017-06-28T02:50:01.854Z,1004.28
2017-06-28T02:50:27.416Z,1004.25
2017-06-28T02:50:52.986Z,1004.28
2017-06-28T02:51:18.557Z,1004.26
2017-06-28T02:51:44.078Z,1004.27
2017-06-28T02:52:09.707Z,1004.25
2017-06-28T02:52:35.389Z,1004.26
2017-06-28T02:53:00.967Z,1004.26
2017-06-28T02:53:26.508Z,1004.23
2017-06-28T02:53:52.083Z,1004.24
2017-06-28T02:54:17.640Z,1004.25
2017-06-28T02:54:43.211Z,1004.24
2017-06-28T02:55:08.774Z,1004.23
2017-06-28T02:55:34.385Z,1004.19
2017-06-28T02:55:59.952Z,1004.21
2017-06-28T02:56:25.528Z,1004.19
2017-06-28T02:56:51.159Z,1004.21
2017-06-28T02:57:16.726Z,1004.18
2017-06-28T02:57:42.319Z,1004.17
2017-06-28T02:58:07.891Z,1004.17
2017-06-28T02:58:33.449Z,1004.18
2017-06-28T02:58:59.018Z,1004.15
2017-06-28T02:59:24.681Z,1004.13
2017-06-28T02:59:50.257Z,1004.12
2017-06-28T03:00:15.839Z,1004.12
2017-06-28T03:00:41.403Z,1004.06
2017-06-28T03:01:06.977Z,1004.1
2017-06-28T03:01:32.530Z,1004.07
2017-06-28T03:01:58.116Z,1004.11
2017-06-28T03:02:23.737Z,1004.09
2017-06-28T03:02:49.304Z,1004.05
2017-06-28T03:03:14.887Z,1004.09
2017-06-28T03:03:40.452Z,1004.05
2017-06-28T03:04:05.991Z,1004.04
2017-06-28T03:04:31.598Z,1004.03
2017-06-28T03:04:57.177Z,1004.03
2017-06-28T03:05:22.764Z,1004.04
2017-06-28T03:05:48.337Z,1004.03
2017-06-28T03:06:13.898Z,1004.02
2017-06-28T03:06:39.446Z,1004.04
2017-06-28T03:07:05.036Z,1004.04
2017-06-28T03:07:30.589Z,1003.95
2017-06-28T03:07:56.139Z,1004
2017-06-28T03:08:21.688Z,1004.02
2017-06-28T03:08:47.380Z,1004
2017-06-28T03:09:12.983Z,1004.01
2017-06-28T03:09:38.550Z,1004.02
2017-06-28T03:10:04.127Z,1003.99
2017-06-28T03:10:29.680Z,1003.99
2017-06-28T03:10:55.248Z,1003.96
2017-06-28T03:11:20.796Z,1003.97
2017-06-28T03:11:46.383Z,1003.96
2017-06-28T03:12:11.926Z,1003.92
2017-06-28T03:12:37.642Z,1003.93
2017-06-28T03:13:03.213Z,1003.9
2017-06-28T03:13:28.755Z,1003.88
2017-06-28T03:13:54.329Z,1003.86
2017-06-28T03:14:19.907Z,1003.88
2017-06-28T03:14:45.483Z,1003.85
2017-06-28T03:15:11.044Z,1003.87
2017-06-28T03:15:36.601Z,1003.83
2017-06-28T03:16:02.179Z,1003.82
2017-06-28T03:16:27.730Z,1003.77
2017-06-28T03:16:53.273Z,1003.76
2017-06-28T03:17:18.848Z,1003.78
2017-06-28T03:17:44.411Z,1003.76
2017-06-28T03:18:09.965Z,1003.77
2017-06-28T03:18:35.577Z,1003.74
2017-06-28T03:19:01.144Z,1003.69
2017-06-28T03:19:26.734Z,1003.71
2017-06-28T03:19:52.298Z,1003.72
2017-06-28T03:20:17.876Z,1003.75
2017-06-28T03:20:43.434Z,1003.75
2017-06-28T03:21:09.025Z,1003.73
2017-06-28T03:21:34.667Z,1003.73
2017-06-28T03:22:00.230Z,1003.74
2017-06-28T03:22:25.784Z,1003.72
2017-06-28T03:22:51.343Z,1003.74
2017-06-28T03:23:16.905Z,1003.76
2017-06-28T03:23:42.481Z,1003.73
2017-06-28T03:24:08.058Z,1003.75
2017-06-28T03:24:33.627Z,1003.75
2017-06-28T03:24:59.198Z,1003.74
2017-06-28T03:25:24.829Z,1003.72
2017-06-28T03:25:50.390Z,1003.69
2017-06-28T03:26:15.943Z,1003.72
2017-06-28T03:26:41.514Z,1003.73
2017-06-28T03:27:07.150Z,1003.72
2017-06-28T03:27:32.695Z,1003.7
2017-06-28T03:27:58.251Z,1003.67
2017-06-28T03:28:23.840Z,1003.7
2017-06-28T03:28:49.383Z,1003.68
2017-06-28T03:29:14.931Z,1003.69
2017-06-28T03:29:40.579Z,1003.66
2017-06-28T03:30:06.145Z,1003.64
2017-06-28T03:30:31.785Z,1003.71
2017-06-28T03:30:57.350Z,1003.68
2017-06-28T03:31:22.922Z,1003.7
2017-06-28T03:31:48.478Z,1003.66
2017-06-28T03:32:14.028Z,1003.66
2017-06-28T03:32:39.605Z,1003.7
2017-06-28T03:33:05.253Z,1003.71
2017-06-28T03:33:30.905Z,1003.68
2017-06-28T03:33:56.498Z,1003.67
2017-06-28T03:34:22.077Z,1003.64
2017-06-28T03:34:47.649Z,1003.65
2017-06-28T03:35:13.210Z,1003.68
2017-06-28T03:35:38.803Z,1003.66
2017-06-28T03:36:04.358Z,1003.63
2017-06-28T03:36:29.911Z,1003.67
2017-06-28T03:36:55.466Z,1003.69
2017-06-28T03:37:21.037Z,1003.67
2017-06-28T03:37:46.611Z,1003.66
2017-06-28T03:38:12.173Z,1003.65
2017-06-28T03:38:37.741Z,1003.69
2017-06-28T03:39:03.302Z,1003.65
2017-06-28T03:39:28.890Z,1003.71
2017-06-28T03:39:54.516Z,1003.67
2017-06-28T03:40:20.080Z,1003.66
2017-06-28T03:40:45.658Z,1003.66
2017-06-28T03:41:11.209Z,1003.68
2017-06-28T03:41:36.823Z,1003.66
2017-06-28T03:42:02.402Z,1003.63
2017-06-28T03:42:27.968Z,1003.65
2017-06-28T03:42:53.520Z,1003.65
2017-06-28T03:43:19.076Z,1003.66
2017-06-28T03:43:44.646Z,1003.7
2017-06-28T03:44:10.252Z,1003.68
2017-06-28T03:44:35.812Z,1003.65
2017-06-28T03:45:01.359Z,1003.66
2017-06-28T03:45:26.950Z,1003.68
2017-06-28T03:45:52.518Z,1003.67
2017-06-28T03:46:18.088Z,1003.64
2017-06-28T03:46:43.720Z,1003.63
2017-06-28T03:47:09.320Z,1003.64
2017-06-28T03:47:34.908Z,1003.61
2017-06-28T03:48:00.458Z,1003.64
2017-06-28T03:48:26.018Z,1003.58
2017-06-28T03:48:51.568Z,1003.61
2017-06-28T03:49:17.157Z,1003.62
2017-06-28T03:49:42.750Z,1003.55
2017-06-28T03:50:08.301Z,1003.58
2017-06-28T03:50:33.855Z,1003.59
2017-06-28T03:50:59.453Z,1003.55
2017-06-28T03:51:25.011Z,1003.53
2017-06-28T03:51:50.691Z,1003.55
2017-06-28T03:52:16.365Z,1003.51
2017-06-28T03:52:41.918Z,1003.49
2017-06-28T03:53:07.495Z,1003.47
2017-06-28T03:53:33.060Z,1003.51
2017-06-28T03:53:58.620Z,1003.49
2017-06-28T03:54:24.191Z,1003.51
2017-06-28T03:54:49.730Z,1003.49
2017-06-28T03:55:15.282Z,1003.45
2017-06-28T03:55:40.875Z,1003.44
2017-06-28T03:56:06.436Z,1003.45
2017-06-28T03:56:32.017Z,1003.47
2017-06-28T03:56:57.645Z,1003.46
2017-06-28T03:57:23.185Z,1003.43
2017-06-28T03:57:48.759Z,1003.49
2017-06-28T03:58:14.394Z,1003.45
2017-06-28T03:58:39.992Z,1003.47
2017-06-28T03:59:05.557Z,1003.48
2017-06-28T03:59:31.131Z,1003.52
2017-06-28T03:59:56.687Z,1003.49
2017-06-28T04:00:22.269Z,1003.47
2017-06-28T04:00:47.838Z,1003.44
2017-06-28T04:01:13.487Z,1003.5
2017-06-28T04:01:39.037Z,1003.51
2017-06-28T04:02:04.585Z,1003.47
2017-06-28T04:02:30.143Z,1003.5
2017-06-28T04:02:55.689Z,1003.51
2017-06-28T04:03:21.278Z,1003.51
2017-06-28T04:03:46.853Z,1003.5
2017-06-28T04:04:12.416Z,1003.46
2017-06-28T04:04:37.991Z,1003.47
2017-06-28T04:05:03.575Z,1003.48
2017-06-28T04:05:29.138Z,1003.49
2017-06-28T04:05:54.752Z,1003.5
2017-06-28T04:06:20.308Z,1003.47
2017-06-28T04:06:45.880Z,1003.48
2017-06-28T04:07:11.455Z,1003.45
2017-06-28T04:07:37.097Z,1003.43
2017-06-28T04:08:02.706Z,1003.43
2017-06-28T04:08:28.301Z,1003.47
2017-06-28T04:08:53.852Z,1003.44
2017-06-28T04:09:19.438Z,1003.4
2017-06-28T04:09:45.023Z,1003.47
2017-06-28T04:10:10.620Z,1003.46
2017-06-28T04:10:36.178Z,1003.42
2017-06-28T04:11:01.735Z,1003.44
2017-06-28T04:11:27.316Z,1003.43
2017-06-28T04:11:52.932Z,1003.41
2017-06-28T04:12:18.509Z,1003.42
2017-06-28T04:12:44.054Z,1003.44
2017-06-28T04:13:09.610Z,1003.42
2017-06-28T04:13:35.168Z,1003.43
2017-06-28T04:14:00.747Z,1003.39
2017-06-28T04:14:26.290Z,1003.36
2017-06-28T04:14:51.849Z,1003.38
2017-06-28T04:15:17.400Z,1003.37
2017-06-28T04:15:43.050Z,1003.37
2017-06-28T04:16:08.633Z,1003.35
2017-06-28T04:16:34.250Z,1003.39
2017-06-28T04:16:59.789Z,1003.39
2017-06-28T04:17:25.356Z,1003.37
2017-06-28T04:17:50.916Z,1003.4
2017-06-28T04:18:16.501Z,1003.39
2017-06-28T04:18:42.099Z,1003.38
2017-06-28T04:19:07.660Z,1003.38
2017-06-28T04:19:33.305Z,1003.43
2017-06-28T04:19:58.858Z,1003.41
2017-06-28T04:20:24.445Z,1003.43
2017-06-28T04:20:50.056Z,1003.42
2017-06-28T04:21:15.620Z,1003.44
2017-06-28T04:21:41.167Z,1003.47
2017-06-28T04:22:06.737Z,1003.45
2017-06-28T04:22:32.318Z,1003.46
2017-06-28T04:22:57.871Z,1003.46
2017-06-28T04:23:23.462Z,1003.49
2017-06-28T04:23:49.010Z,1003.44
2017-06-28T04:24:14.588Z,1003.46
2017-06-28T04:24:40.179Z,1003.46
2017-06-28T04:25:05.749Z,1003.48
2017-06-28T04:25:31.313Z,1003.47
2017-06-28T04:25:56.867Z,1003.46
2017-06-28T04:26:22.439Z,1003.43
2017-06-28T04:26:48.011Z,1003.44
2017-06-28T04:27:13.585Z,1003.43
2017-06-28T04:27:39.184Z,1003.41
2017-06-28T04:28:04.743Z,1003.4
2017-06-28T04:28:30.317Z,1003.37
2017-06-28T04:28:55.911Z,1003.41
2017-06-28T04:29:21.463Z,1003.4
2017-06-28T04:29:47.029Z,1003.37
2017-06-28T04:30:12.600Z,1003.44
2017-06-28T04:30:38.161Z,1003.36
2017-06-28T04:31:03.735Z,1003.4
2017-06-28T04:31:29.287Z,1003.39
2017-06-28T04:31:54.901Z,1003.4
2017-06-28T04:32:20.452Z,1003.35
2017-06-28T04:32:45.996Z,1003.41
2017-06-28T04:33:11.575Z,1003.35
2017-06-28T04:33:37.131Z,1003.34
2017-06-28T04:34:02.695Z,1003.33
2017-06-28T04:34:28.248Z,1003.36
2017-06-28T04:34:53.802Z,1003.35
2017-06-28T04:35:19.356Z,1003.33
2017-06-28T04:35:44.927Z,1003.37
2017-06-28T04:36:10.503Z,1003.32
2017-06-28T04:36:36.093Z,1003.32
2017-06-28T04:37:01.647Z,1003.29
2017-06-28T04:37:27.217Z,1003.3
2017-06-28T04:37:52.802Z,1003.26
2017-06-28T04:38:18.385Z,1003.26
2017-06-28T04:38:43.966Z,1003.23
2017-06-28T04:39:09.511Z,1003.26
2017-06-28T04:39:35.093Z,1003.19
2017-06-28T04:40:00.648Z,1003.25
2017-06-28T04:40:26.228Z,1003.22
2017-06-28T04:40:51.788Z,1003.22
2017-06-28T04:41:17.370Z,1003.22
2017-06-28T04:41:42.955Z,1003.21
2017-06-28T04:42:08.544Z,1003.17
2017-06-28T04:42:34.161Z,1003.19
2017-06-28T04:42:59.721Z,1003.21
2017-06-28T04:43:25.288Z,1003.15
2017-06-28T04:43:50.917Z,1003.16
2017-06-28T04:44:16.536Z,1003.18
2017-06-28T04:44:42.121Z,1003.13
2017-06-28T04:45:07.692Z,1003.12
2017-06-28T04:45:33.899Z,1003.1
2017-06-28T04:45:58.825Z,1003.08
2017-06-28T04:46:24.559Z,1003.11
2017-06-28T04:46:50.118Z,1003.07
2017-06-28T04:47:15.714Z,1003.07
2017-06-28T04:47:41.292Z,1003.04
2017-06-28T04:48:06.864Z,1003.05
2017-06-28T04:48:32.445Z,1003.06
2017-06-28T04:48:58.087Z,1003.03
2017-06-28T04:49:23.657Z,1003
2017-06-28T04:49:49.209Z,1002.96
2017-06-28T04:50:14.797Z,1002.99
2017-06-28T04:50:40.363Z,1002.94
2017-06-28T04:51:05.910Z,1002.92
2017-06-28T04:51:31.496Z,1002.91
2017-06-28T04:51:57.190Z,1002.94
2017-06-28T04:52:22.829Z,1002.95
2017-06-28T04:52:48.407Z,1002.97
2017-06-28T04:53:13.962Z,1002.94
2017-06-28T04:53:39.520Z,1002.94
2017-06-28T04:54:05.092Z,1002.95
2017-06-28T04:54:30.645Z,1002.92
2017-06-28T04:54:56.245Z,1002.94
2017-06-28T04:55:21.971Z,1002.96
2017-06-28T04:55:47.534Z,1002.96
2017-06-28T04:56:13.080Z,1002.93
2017-06-28T04:56:38.730Z,1002.95
2017-06-28T04:57:04.492Z,1002.95
2017-06-28T04:57:30.053Z,1002.97
2017-06-28T04:57:55.625Z,1002.97
2017-06-28T04:58:21.210Z,1003.02
2017-06-28T04:58:46.764Z,1003
2017-06-28T04:59:12.333Z,1002.97
2017-06-28T04:59:37.933Z,1002.94
2017-06-28T05:00:03.476Z,1002.97
2017-06-28T05:00:29.041Z,1002.95
2017-06-28T05:00:54.650Z,1003
2017-06-28T05:01:20.246Z,1002.98
2017-06-28T05:01:45.809Z,1002.89
2017-06-28T05:02:11.443Z,1002.92
2017-06-28T05:02:37.020Z,1002.89
2017-06-28T05:03:02.580Z,1002.86
2017-06-28T05:03:28.156Z,1002.89
2017-06-28T05:03:53.731Z,1002.87
2017-06-28T05:04:19.309Z,1002.86
2017-06-28T05:04:44.878Z,1002.79
2017-06-28T05:05:10.421Z,1002.78
2017-06-28T05:05:36.002Z,1002.81
2017-06-28T05:06:01.649Z,1002.79
2017-06-28T05:06:27.245Z,1002.77
2017-06-28T05:06:52.811Z,1002.77
2017-06-28T05:07:18.365Z,1002.8
2017-06-28T05:07:43.944Z,1002.78
2017-06-28T05:08:09.491Z,1002.76
2017-06-28T05:08:35.096Z,1002.68
2017-06-28T05:09:00.649Z,1002.72
2017-06-28T05:09:26.208Z,1002.71
2017-06-28T05:09:51.798Z,1002.7
2017-06-28T05:10:17.372Z,1002.65
2017-06-28T05:10:42.936Z,1002.66
2017-06-28T05:11:08.510Z,1002.67
2017-06-28T05:11:34.055Z,1002.61